createdAt,value
2023-07-29T00:00:53.966Z,3.23
2023-07-29T00:03:20.821Z,4.27
2023-07-29T00:05:48.239Z,2.53
2023-07-29T00:08:15.016Z,3.13
2023-07-29T00:10:41.769Z,3.63
2023-07-29T00:13:08.632Z,7.10
2023-07-29T00:15:35.380Z,6.23
2023-07-29T00:18:02.184Z,5.57
2023-07-29T00:20:28.950Z,3.77
2023-07-29T00:22:55.937Z,3.10
2023-07-29T00:25:22.917Z,3.80
2023-07-29T00:27:49.675Z,4.17
2023-07-29T00:30:19.494Z,3.60
2023-07-29T00:32:46.274Z,5.27
2023-07-29T00:35:13.709Z,3.70
2023-07-29T00:37:40.933Z,4.60
2023-07-29T00:40:13.974Z,5.70
2023-07-29T00:42:40.722Z,5.70
2023-07-29T00:45:10.056Z,3.90
2023-07-29T00:47:36.856Z,4.43
2023-07-29T00:50:04.119Z,4.00
2023-07-29T00:52:31.180Z,4.07
2023-07-29T00:54:57.873Z,4.97
2023-07-29T00:57:26.344Z,4.20
2023-07-29T00:59:53.280Z,3.63
2023-07-29T01:02:20.881Z,4.00
2023-07-29T01:04:52.114Z,3.57
2023-07-29T01:07:23.229Z,3.70
2023-07-29T01:10:08.874Z,4.30
2023-07-29T01:12:54.222Z,3.87
2023-07-29T01:15:25.457Z,5.33
2023-07-29T01:17:57.103Z,4.43
2023-07-29T01:20:25.086Z,3.10
2023-07-29T01:22:52.056Z,3.67
2023-07-29T01:25:18.753Z,3.73
2023-07-29T01:27:46.281Z,3.43
2023-07-29T01:30:14.554Z,3.90
2023-07-29T01:32:48.774Z,3.80
2023-07-29T01:35:27.945Z,3.43
2023-07-29T01:38:04.050Z,3.27
2023-07-29T01:40:31.560Z,3.80
2023-07-29T01:42:58.325Z,4.57
2023-07-29T01:45:26.576Z,3.33
2023-07-29T01:47:53.803Z,3.50
2023-07-29T01:50:21.958Z,3.33
2023-07-29T01:52:48.746Z,3.20
2023-07-29T01:55:15.605Z,3.40
2023-07-29T01:57:42.391Z,4.77
2023-07-29T02:00:09.558Z,3.37
2023-07-29T02:02:42.183Z,3.53
2023-07-29T02:05:09.020Z,3.53
2023-07-29T02:07:36.788Z,4.33
2023-07-29T02:10:03.683Z,4.07
2023-07-29T02:12:30.471Z,3.80
2023-07-29T02:14:57.174Z,4.83
2023-07-29T02:17:23.944Z,4.33
2023-07-29T02:19:50.693Z,5.33
2023-07-29T02:22:17.893Z,6.17
2023-07-29T02:24:44.962Z,5.67
2023-07-29T02:27:12.097Z,5.13
2023-07-29T02:29:38.796Z,5.07
2023-07-29T02:32:05.612Z,5.57
2023-07-29T02:34:32.503Z,4.73
2023-07-29T02:36:59.252Z,5.40
2023-07-29T02:39:25.953Z,35.03
2023-07-29T02:41:52.798Z,24.60
2023-07-29T02:44:20.996Z,18.43
2023-07-29T02:46:47.716Z,30.63
2023-07-29T02:49:14.437Z,6.37
2023-07-29T02:51:41.282Z,5.27
2023-07-29T02:54:07.980Z,4.13
2023-07-29T02:56:35.009Z,4.47
2023-07-29T02:59:02.534Z,4.63
2023-07-29T03:01:30.875Z,4.30
2023-07-29T03:03:57.699Z,4.50
2023-07-29T03:06:24.935Z,6.37
2023-07-29T03:08:51.730Z,6.07
2023-07-29T03:11:18.558Z,4.80
2023-07-29T03:13:45.607Z,5.20
2023-07-29T03:16:16.615Z,4.67
2023-07-29T03:18:49.260Z,5.30
2023-07-29T03:21:16.097Z,4.67
2023-07-29T03:23:42.808Z,5.90
2023-07-29T03:26:12.488Z,4.57
2023-07-29T03:28:40.543Z,5.47
2023-07-29T03:31:07.426Z,5.37
2023-07-29T03:33:34.455Z,5.17
2023-07-29T03:36:01.352Z,5.10
2023-07-29T03:38:28.556Z,5.20
2023-07-29T03:40:55.525Z,5.83
2023-07-29T03:43:22.279Z,5.40
2023-07-29T03:45:49.118Z,5.77
2023-07-29T03:48:15.963Z,5.00
2023-07-29T03:50:42.752Z,5.37
2023-07-29T03:53:11.000Z,4.83
2023-07-29T03:55:37.740Z,5.40
2023-07-29T03:58:04.434Z,5.20
2023-07-29T04:00:31.121Z,4.23
2023-07-29T04:02:57.875Z,4.50
2023-07-29T04:05:24.906Z,4.73
2023-07-29T04:07:51.892Z,4.70
2023-07-29T04:10:18.697Z,4.50
2023-07-29T04:12:45.581Z,4.60
2023-07-29T04:15:12.301Z,4.53
2023-07-29T04:17:39.118Z,4.80
2023-07-29T04:20:06.114Z,4.23
2023-07-29T04:22:34.800Z,5.60
2023-07-29T04:25:01.590Z,4.50
2023-07-29T04:27:28.391Z,4.57
2023-07-29T04:29:55.205Z,4.30
2023-07-29T04:32:22.021Z,4.33
2023-07-29T04:34:48.795Z,3.40
2023-07-29T04:37:15.528Z,3.50
2023-07-29T04:39:42.292Z,3.30
2023-07-29T04:42:09.008Z,3.40
2023-07-29T04:44:35.769Z,3.63
2023-07-29T04:47:03.086Z,5.00
2023-07-29T04:49:29.899Z,3.43
2023-07-29T04:51:56.720Z,3.07
2023-07-29T04:54:23.508Z,4.07
2023-07-29T04:56:50.176Z,3.63
2023-07-29T04:59:18.020Z,2.90
2023-07-29T05:01:44.837Z,3.00
2023-07-29T05:04:11.700Z,3.20
2023-07-29T05:06:38.811Z,4.30
2023-07-29T05:09:16.610Z,4.03
2023-07-29T05:11:46.357Z,3.13
2023-07-29T05:14:14.133Z,4.27
2023-07-29T05:16:40.873Z,2.73
2023-07-29T05:19:07.737Z,4.37
2023-07-29T05:21:34.614Z,3.57
2023-07-29T05:24:01.474Z,2.70
2023-07-29T05:26:28.251Z,3.83
2023-07-29T05:28:54.965Z,2.97
2023-07-29T05:31:23.047Z,3.40
2023-07-29T05:33:50.054Z,6.23
2023-07-29T05:36:16.891Z,3.43
2023-07-29T05:38:45.820Z,4.23
2023-07-29T05:41:12.670Z,3.73
2023-07-29T05:43:39.756Z,3.20
2023-07-29T05:46:06.770Z,3.70
2023-07-29T05:48:34.597Z,3.00
2023-07-29T05:51:03.645Z,2.87
2023-07-29T05:53:33.274Z,3.10
2023-07-29T05:56:00.143Z,2.47
2023-07-29T05:58:26.975Z,2.50
2023-07-29T06:00:53.978Z,3.33
2023-07-29T06:03:21.174Z,3.00
2023-07-29T06:05:50.401Z,3.40
2023-07-29T06:08:18.075Z,3.17
2023-07-29T06:10:45.006Z,5.90
2023-07-29T06:13:11.801Z,3.20
2023-07-29T06:15:38.548Z,7.93
2023-07-29T06:18:05.321Z,4.10
2023-07-29T06:20:32.061Z,3.77
2023-07-29T06:22:58.793Z,6.90
2023-07-29T06:25:25.628Z,2.80
2023-07-29T06:27:52.534Z,3.50
2023-07-29T06:30:19.304Z,5.47
2023-07-29T06:32:46.096Z,3.10
2023-07-29T06:35:13.520Z,3.40
2023-07-29T06:37:40.227Z,3.13
2023-07-29T06:40:07.189Z,4.80
2023-07-29T06:42:33.950Z,5.17
2023-07-29T06:45:00.620Z,5.93
2023-07-29T06:47:27.350Z,4.83
2023-07-29T06:49:54.753Z,6.37
2023-07-29T06:52:21.529Z,5.37
2023-07-29T06:54:48.605Z,3.40
2023-07-29T06:57:15.407Z,3.80
2023-07-29T06:59:42.113Z,2.60
2023-07-29T07:02:08.883Z,3.17
2023-07-29T07:04:35.632Z,2.93
2023-07-29T07:07:02.410Z,3.07
2023-07-29T07:09:29.106Z,4.27
2023-07-29T07:11:55.842Z,4.03
2023-07-29T07:14:22.642Z,4.37
2023-07-29T07:16:49.472Z,5.37
2023-07-29T07:19:16.315Z,5.87
2023-07-29T07:21:43.065Z,4.80
2023-07-29T07:24:09.845Z,5.40
2023-07-29T07:26:36.869Z,3.40
2023-07-29T07:29:03.810Z,4.20
2023-07-29T07:31:33.902Z,6.37
2023-07-29T07:34:00.643Z,4.20
2023-07-29T07:36:27.319Z,4.20
2023-07-29T07:38:54.044Z,4.40
2023-07-29T07:41:20.878Z,4.17
2023-07-29T07:43:47.590Z,4.70
2023-07-29T07:46:14.333Z,3.43
2023-07-29T07:48:41.027Z,3.97
2023-07-29T07:51:12.043Z,4.27
2023-07-29T07:53:38.859Z,3.33
2023-07-29T07:56:05.582Z,4.67
2023-07-29T07:58:33.444Z,3.73
2023-07-29T08:01:04.125Z,6.53
2023-07-29T08:03:31.066Z,3.90
2023-07-29T08:05:58.173Z,4.63
2023-07-29T08:08:25.132Z,4.90
2023-07-29T08:10:53.401Z,8.00
2023-07-29T08:13:20.061Z,4.63
2023-07-29T08:15:47.506Z,8.37
2023-07-29T08:18:14.302Z,6.87
2023-07-29T08:20:41.056Z,9.43
2023-07-29T08:23:07.849Z,5.57
2023-07-29T08:25:35.085Z,6.57
2023-07-29T08:28:01.957Z,7.17
2023-07-29T08:30:28.771Z,10.50
2023-07-29T08:32:55.491Z,6.97
2023-07-29T08:35:22.292Z,5.67
2023-07-29T08:37:49.044Z,6.60
2023-07-29T08:40:15.848Z,6.27
2023-07-29T08:42:42.801Z,7.77
2023-07-29T08:45:09.940Z,5.00
2023-07-29T08:47:36.731Z,4.63
2023-07-29T08:50:03.873Z,4.50
2023-07-29T08:52:30.675Z,3.80
2023-07-29T08:54:57.573Z,3.30
2023-07-29T08:57:24.496Z,3.40
2023-07-29T08:59:51.288Z,2.97
2023-07-29T09:02:18.990Z,3.00
2023-07-29T09:04:45.780Z,4.07
2023-07-29T09:07:13.050Z,2.20
2023-07-29T09:09:39.711Z,2.47
2023-07-29T09:12:07.337Z,2.50
2023-07-29T09:14:34.035Z,2.83
2023-07-29T09:17:01.045Z,2.97
2023-07-29T09:19:28.345Z,5.10
2023-07-29T09:21:55.181Z,3.53
2023-07-29T09:24:22.008Z,4.57
2023-07-29T09:26:52.067Z,5.83
2023-07-29T09:29:22.638Z,7.03
2023-07-29T09:31:49.377Z,4.70
2023-07-29T09:34:16.487Z,3.73
2023-07-29T09:36:43.362Z,4.97
2023-07-29T09:39:14.218Z,4.47
2023-07-29T09:41:41.200Z,7.47
2023-07-29T09:44:08.402Z,6.20
2023-07-29T09:46:39.466Z,6.57
2023-07-29T09:49:07.788Z,5.83
2023-07-29T09:51:43.658Z,5.50
2023-07-29T09:54:11.626Z,5.67
2023-07-29T09:56:41.872Z,5.77
2023-07-29T09:59:08.637Z,4.00
2023-07-29T10:01:37.273Z,12.57
2023-07-29T10:04:05.340Z,16.00
2023-07-29T10:06:33.714Z,6.87
2023-07-29T10:09:00.458Z,10.97
2023-07-29T10:11:27.325Z,7.00
2023-07-29T10:14:07.509Z,4.83
2023-07-29T10:16:37.364Z,4.50
2023-07-29T10:19:05.665Z,5.47
2023-07-29T10:21:32.660Z,6.20
2023-07-29T10:24:01.347Z,5.03
2023-07-29T10:26:29.523Z,5.40
2023-07-29T10:28:57.718Z,6.57
2023-07-29T10:31:24.489Z,4.77
2023-07-29T10:33:51.619Z,5.77
2023-07-29T10:36:19.557Z,4.80
2023-07-29T10:38:47.878Z,3.80
2023-07-29T10:41:14.621Z,5.67
2023-07-29T10:43:41.369Z,3.90
2023-07-29T10:46:21.266Z,5.40
2023-07-29T10:48:50.809Z,6.10
2023-07-29T10:51:30.148Z,5.60
2023-07-29T10:53:58.644Z,4.90
2023-07-29T10:56:26.985Z,4.73
2023-07-29T10:58:55.455Z,3.37
2023-07-29T11:01:29.538Z,2.80
2023-07-29T11:04:16.532Z,2.60
2023-07-29T11:07:02.153Z,2.80
2023-07-29T11:09:42.327Z,3.27
2023-07-29T11:12:29.351Z,2.20
2023-07-29T11:14:56.014Z,3.00
2023-07-29T11:17:22.887Z,3.47
2023-07-29T11:19:50.772Z,2.63
2023-07-29T11:22:17.457Z,2.40
2023-07-29T11:24:44.204Z,2.20
2023-07-29T11:27:14.104Z,2.40
2023-07-29T11:29:40.827Z,2.77
2023-07-29T11:32:07.854Z,3.00
2023-07-29T11:34:34.542Z,2.73
2023-07-29T11:37:01.231Z,3.70
2023-07-29T11:39:27.937Z,3.00
2023-07-29T11:41:54.608Z,3.80
2023-07-29T11:44:21.283Z,3.33
2023-07-29T11:46:49.763Z,2.93
2023-07-29T11:49:16.593Z,3.27
2023-07-29T11:51:43.454Z,2.63
2023-07-29T11:54:10.178Z,2.87
2023-07-29T11:56:37.053Z,4.03
2023-07-29T11:59:04.262Z,2.73
2023-07-29T12:01:31.705Z,3.07
2023-07-29T12:03:58.715Z,2.37
2023-07-29T12:06:26.057Z,2.60
2023-07-29T12:08:54.368Z,2.40
2023-07-29T12:11:21.297Z,2.47
2023-07-29T12:13:48.049Z,3.17
2023-07-29T12:16:19.028Z,2.63
2023-07-29T12:18:45.887Z,2.53
2023-07-29T12:21:14.796Z,2.37
2023-07-29T12:23:41.532Z,2.47
2023-07-29T12:26:08.202Z,2.37
2023-07-29T12:28:34.955Z,2.10
2023-07-29T12:31:01.833Z,3.37
2023-07-29T12:33:31.636Z,2.37
2023-07-29T12:35:58.364Z,4.80
2023-07-29T12:38:28.572Z,4.37
2023-07-29T12:40:55.927Z,2.87
2023-07-29T12:43:22.791Z,1.83
2023-07-29T12:45:52.916Z,3.17
2023-07-29T12:48:19.747Z,2.20
2023-07-29T12:50:47.133Z,2.43
2023-07-29T12:53:13.844Z,2.10
2023-07-29T12:55:40.530Z,2.20
2023-07-29T12:58:07.255Z,2.67
2023-07-29T13:00:33.980Z,2.43
2023-07-29T13:03:00.817Z,2.10
2023-07-29T13:05:27.680Z,3.40
2023-07-29T13:07:54.347Z,3.17
2023-07-29T13:10:21.119Z,1.80
2023-07-29T13:12:48.079Z,3.07
2023-07-29T13:15:14.805Z,1.87
2023-07-29T13:17:42.410Z,2.50
2023-07-29T13:20:09.637Z,2.80
2023-07-29T13:22:36.475Z,1.70
2023-07-29T13:25:03.326Z,1.70
2023-07-29T13:27:30.083Z,3.47
2023-07-29T13:29:56.827Z,2.40
2023-07-29T13:32:23.650Z,1.70
2023-07-29T13:34:50.421Z,1.73
2023-07-29T13:37:17.091Z,1.40
2023-07-29T13:39:43.810Z,1.90
2023-07-29T13:42:10.531Z,2.27
2023-07-29T13:44:37.206Z,1.90
2023-07-29T13:47:04.111Z,2.57
2023-07-29T13:49:30.835Z,3.30
2023-07-29T13:51:57.549Z,1.97
2023-07-29T13:54:24.234Z,1.83
2023-07-29T13:56:50.928Z,3.07
2023-07-29T13:59:17.658Z,2.97
2023-07-29T14:01:44.443Z,2.80
2023-07-29T14:04:11.232Z,2.20
2023-07-29T14:06:45.509Z,2.77
2023-07-29T14:09:12.990Z,12.73
2023-07-29T14:11:39.941Z,10.77
2023-07-29T14:14:07.907Z,7.87
2023-07-29T14:16:35.134Z,5.80
2023-07-29T14:19:02.259Z,7.10
2023-07-29T14:21:29.592Z,3.57
2023-07-29T14:23:56.526Z,1.70
2023-07-29T14:26:23.638Z,2.50
2023-07-29T14:28:51.004Z,1.33
2023-07-29T14:31:18.207Z,1.40
2023-07-29T14:33:45.226Z,2.13
2023-07-29T14:36:11.952Z,1.50
2023-07-29T14:38:38.820Z,1.67
2023-07-29T14:41:05.557Z,1.30
2023-07-29T14:43:32.407Z,1.23
2023-07-29T14:45:59.173Z,1.43
2023-07-29T14:48:26.012Z,1.50
2023-07-29T14:50:52.818Z,1.43
2023-07-29T14:53:19.552Z,1.70
2023-07-29T14:55:46.442Z,20.93
2023-07-29T14:58:13.159Z,15.17
2023-07-29T15:00:39.974Z,7.50
2023-07-29T15:03:08.426Z,2.00
2023-07-29T15:05:35.344Z,1.50
2023-07-29T15:08:02.494Z,1.50
2023-07-29T15:10:29.244Z,1.30
2023-07-29T15:12:56.013Z,1.03
2023-07-29T15:15:22.782Z,1.30
2023-07-29T15:17:49.553Z,1.53
2023-07-29T15:20:16.328Z,2.57
2023-07-29T15:22:43.060Z,3.57
2023-07-29T15:25:10.489Z,4.80
2023-07-29T15:27:38.364Z,2.60
2023-07-29T15:30:06.319Z,2.47
2023-07-29T15:32:33.157Z,1.70
2023-07-29T15:35:00.012Z,3.50
2023-07-29T15:37:27.348Z,2.57
2023-07-29T15:39:54.577Z,1.87
2023-07-29T15:42:21.595Z,1.77
2023-07-29T15:44:48.498Z,1.97
2023-07-29T15:47:19.601Z,1.83
2023-07-29T15:49:46.805Z,3.07
2023-07-29T15:52:15.709Z,1.60
2023-07-29T15:54:42.931Z,2.10
2023-07-29T15:57:10.020Z,1.93
2023-07-29T15:59:36.802Z,2.97
2023-07-29T16:02:03.692Z,1.87
2023-07-29T16:04:30.492Z,2.73
2023-07-29T16:06:57.206Z,7.47
2023-07-29T16:09:23.868Z,19.27
2023-07-29T16:11:50.865Z,604.33
2023-07-29T16:14:17.568Z,421.50
2023-07-29T16:16:47.417Z,1263.40
2023-07-29T16:19:14.336Z,1907.43
2023-07-29T16:21:41.104Z,1704.83
2023-07-29T16:24:07.817Z,1707.20
2023-07-29T16:26:34.833Z,1989.70
2023-07-29T16:29:01.842Z,1999.90
2023-07-29T16:31:28.662Z,939.40
2023-07-29T16:33:55.446Z,1999.90
2023-07-29T16:36:22.146Z,964.45
2023-07-29T16:38:48.926Z,1205.15
2023-07-29T16:41:46.256Z,925.65
2023-07-29T16:44:02.416Z,1459.57
2023-07-29T16:46:29.187Z,1157.43
2023-07-29T16:48:55.950Z,945.42
2023-07-29T16:51:22.736Z,197.15
2023-07-29T16:53:50.949Z,5.53
2023-07-29T16:56:17.683Z,2.80
2023-07-29T16:58:44.399Z,3.13
2023-07-29T17:01:11.150Z,2.40
2023-07-29T17:03:38.056Z,3.35
2023-07-29T17:06:04.855Z,5.03
2023-07-29T17:08:31.582Z,2.57
2023-07-29T17:10:58.393Z,2.80
2023-07-29T17:13:25.101Z,3.60
2023-07-29T17:15:51.951Z,2.80
2023-07-29T17:18:18.745Z,2.47
2023-07-29T17:20:45.466Z,3.07
2023-07-29T17:23:12.194Z,2.07
2023-07-29T17:25:38.934Z,2.80
2023-07-29T17:28:08.009Z,8.87
2023-07-29T17:30:37.794Z,9.10
2023-07-29T17:33:04.616Z,3.87
2023-07-29T17:35:31.780Z,2.93
2023-07-29T17:37:58.616Z,2.93
2023-07-29T17:40:25.351Z,2.53
2023-07-29T17:42:52.106Z,2.80
2023-07-29T17:45:18.794Z,4.37
2023-07-29T17:47:45.591Z,7.17
2023-07-29T17:50:12.370Z,6.73
2023-07-29T17:52:39.085Z,5.67
2023-07-29T17:55:05.788Z,3.53
2023-07-29T17:57:32.521Z,2.50
2023-07-29T17:59:59.323Z,3.10
2023-07-29T18:02:26.170Z,2.43
2023-07-29T18:04:52.972Z,3.20
2023-07-29T18:07:19.781Z,2.30
2023-07-29T18:09:46.652Z,2.70
2023-07-29T18:12:13.396Z,4.67
2023-07-29T18:14:40.120Z,3.80
2023-07-29T18:17:06.820Z,4.67
2023-07-29T18:19:34.016Z,3.27
2023-07-29T18:22:00.808Z,7.77
2023-07-29T18:24:27.652Z,19.50
2023-07-29T18:26:54.396Z,7.33
2023-07-29T18:29:22.133Z,3.60
2023-07-29T18:31:49.340Z,2.70
2023-07-29T18:34:16.017Z,4.77
2023-07-29T18:36:45.921Z,2.20
2023-07-29T18:39:13.337Z,2.60
2023-07-29T18:41:40.266Z,1.97
2023-07-29T18:44:07.643Z,2.20
2023-07-29T18:46:34.755Z,2.50
2023-07-29T18:49:01.454Z,2.50
2023-07-29T18:51:28.284Z,2.33
2023-07-29T18:53:55.028Z,3.70
2023-07-29T18:56:21.873Z,3.20
2023-07-29T18:58:48.683Z,2.13
2023-07-29T19:01:16.268Z,2.20
2023-07-29T19:03:44.350Z,3.00
2023-07-29T19:06:11.673Z,2.33
2023-07-29T19:08:38.465Z,2.73
2023-07-29T19:11:05.206Z,3.33
2023-07-29T19:13:31.999Z,2.20
2023-07-29T19:15:58.897Z,2.83
2023-07-29T19:18:25.591Z,2.37
2023-07-29T19:20:52.758Z,2.90
2023-07-29T19:23:22.320Z,2.80
2023-07-29T19:25:49.738Z,7.93
2023-07-29T19:28:16.675Z,10.30
2023-07-29T19:30:43.887Z,10.90
2023-07-29T19:33:10.756Z,11.07
2023-07-29T19:35:37.491Z,7.33
2023-07-29T19:38:04.211Z,6.07
2023-07-29T19:40:33.579Z,6.30
2023-07-29T19:43:00.272Z,9.13
2023-07-29T19:45:26.939Z,11.60
2023-07-29T19:47:53.683Z,8.27
2023-07-29T19:50:20.413Z,6.40
2023-07-29T19:52:47.157Z,6.43
2023-07-29T19:55:13.997Z,6.20
2023-07-29T19:57:40.767Z,5.40
2023-07-29T20:00:07.884Z,8.67
2023-07-29T20:02:35.534Z,10.00
2023-07-29T20:05:02.432Z,5.57
2023-07-29T20:07:29.332Z,5.07
2023-07-29T20:09:56.183Z,4.70
2023-07-29T20:12:22.909Z,4.87
2023-07-29T20:14:49.777Z,4.33
2023-07-29T20:17:16.543Z,4.33
2023-07-29T20:19:43.279Z,3.30
2023-07-29T20:22:09.983Z,4.77
2023-07-29T20:24:36.662Z,4.60
2023-07-29T20:27:03.521Z,5.43
2023-07-29T20:29:30.303Z,4.67
2023-07-29T20:31:57.619Z,5.27
2023-07-29T20:34:24.601Z,4.50
2023-07-29T20:36:51.332Z,7.93
2023-07-29T20:39:18.424Z,12.10
2023-07-29T20:41:45.251Z,16.20
2023-07-29T20:44:13.263Z,5.90
2023-07-29T20:46:41.114Z,5.17
2023-07-29T20:49:07.881Z,3.30
2023-07-29T20:51:34.648Z,4.20
2023-07-29T20:54:01.358Z,4.30
2023-07-29T20:56:28.177Z,3.93
2023-07-29T20:58:54.985Z,2.97
2023-07-29T21:01:21.793Z,2.40
2023-07-29T21:03:48.602Z,4.43
2023-07-29T21:06:15.408Z,2.97
2023-07-29T21:08:42.100Z,2.23
2023-07-29T21:11:09.544Z,2.20
2023-07-29T21:13:36.354Z,2.57
2023-07-29T21:16:03.112Z,3.03
2023-07-29T21:18:29.862Z,2.97
2023-07-29T21:20:56.586Z,2.70
2023-07-29T21:23:23.386Z,2.60
2023-07-29T21:25:52.030Z,3.00
2023-07-29T21:28:19.857Z,1.50
2023-07-29T21:30:47.191Z,2.07
2023-07-29T21:33:13.962Z,1.90
2023-07-29T21:35:40.717Z,1.57
2023-07-29T21:38:26.967Z,1.63
2023-07-29T21:40:54.144Z,3.40
2023-07-29T21:43:20.903Z,1.97
2023-07-29T21:45:47.688Z,3.03
2023-07-29T21:48:14.358Z,11.80
2023-07-29T21:50:43.974Z,2.90
2023-07-29T21:53:10.731Z,2.23
2023-07-29T21:55:41.880Z,2.03
2023-07-29T21:58:09.069Z,1.90
2023-07-29T22:00:37.125Z,2.27
2023-07-29T22:03:04.585Z,3.53
2023-07-29T22:05:31.526Z,3.30
2023-07-29T22:07:58.208Z,3.27
2023-07-29T22:10:24.911Z,3.63
2023-07-29T22:12:52.008Z,2.23
2023-07-29T22:15:18.745Z,2.83
2023-07-29T22:17:45.612Z,4.00
2023-07-29T22:20:12.575Z,2.80
2023-07-29T22:22:39.440Z,1.77
2023-07-29T22:25:06.408Z,2.30
2023-07-29T22:27:33.123Z,3.20
2023-07-29T22:29:59.806Z,2.27
2023-07-29T22:32:26.689Z,2.00
2023-07-29T22:34:53.438Z,2.00
2023-07-29T22:37:20.099Z,2.07
2023-07-29T22:39:49.067Z,2.53
2023-07-29T22:42:15.802Z,1.70
2023-07-29T22:44:42.619Z,2.23
2023-07-29T22:47:09.392Z,2.10
2023-07-29T22:49:36.083Z,4.73
2023-07-29T22:52:02.740Z,4.03
2023-07-29T22:54:29.446Z,2.97
2023-07-29T22:56:56.147Z,2.40
2023-07-29T22:59:22.896Z,2.33
2023-07-29T23:01:49.616Z,2.80
2023-07-29T23:04:16.299Z,3.93
2023-07-29T23:06:43.034Z,12.83
2023-07-29T23:09:09.821Z,7.97
2023-07-29T23:11:36.847Z,7.43
2023-07-29T23:14:03.805Z,12.77
2023-07-29T23:16:30.495Z,6.20
2023-07-29T23:18:57.216Z,2.50
2023-07-29T23:21:23.915Z,2.27
2023-07-29T23:23:50.633Z,2.70
2023-07-29T23:26:17.377Z,3.37
2023-07-29T23:28:44.080Z,2.50
2023-07-29T23:31:10.823Z,2.50
2023-07-29T23:33:37.578Z,4.30
2023-07-29T23:36:04.491Z,2.30
2023-07-29T23:38:31.435Z,4.07
2023-07-29T23:40:58.256Z,2.40
2023-07-29T23:43:25.132Z,2.53
2023-07-29T23:45:51.972Z,3.17
2023-07-29T23:48:18.796Z,2.60
2023-07-29T23:50:45.667Z,2.47
2023-07-29T23:53:12.473Z,3.57
2023-07-29T23:55:39.142Z,2.90
2023-07-29T23:58:05.863Z,2.80
